createdAt,value
2023-04-20T00:00:34.788Z,1004.92
2023-04-20T00:01:30.502Z,1004.91
2023-04-20T00:02:30.739Z,1004.91
2023-04-20T00:03:31.196Z,1004.92
2023-04-20T00:04:31.950Z,1004.88
2023-04-20T00:05:42.095Z,1004.86
2023-04-20T00:06:31.233Z,1004.86
2023-04-20T00:07:33.874Z,1004.89
2023-04-20T00:08:31.614Z,1004.83
2023-04-20T00:09:31.846Z,1004.87
2023-04-20T00:10:32.977Z,1004.83
2023-04-20T00:11:32.256Z,1004.88
2023-04-20T00:12:32.405Z,1004.86
2023-04-20T00:13:32.570Z,1004.84
2023-04-20T00:14:32.737Z,1004.89
2023-04-20T00:15:35.395Z,1004.82
2023-04-20T00:16:33.328Z,1004.84
2023-04-20T00:17:34.539Z,1004.84
2023-04-20T00:18:33.723Z,1004.83
2023-04-20T00:19:33.837Z,1004.81
2023-04-20T00:21:25.038Z,1004.78
2023-04-20T00:22:27.305Z,1004.83
2023-04-20T00:23:25.506Z,1004.80
2023-04-20T00:24:27.108Z,1004.84
2023-04-20T00:25:26.857Z,1004.79
2023-04-20T00:26:26.997Z,1004.78
2023-04-20T00:27:28.234Z,1004.79
2023-04-20T00:28:28.390Z,1004.77
2023-04-20T00:29:26.613Z,1004.75
2023-04-20T00:30:27.740Z,1004.77
2023-04-20T00:31:27.948Z,1004.76
2023-04-20T00:32:29.229Z,1004.74
2023-04-20T00:33:27.377Z,1004.71
2023-04-20T00:34:27.564Z,1004.72
2023-04-20T00:35:33.218Z,1004.71
2023-04-20T00:36:27.868Z,1004.69
2023-04-20T00:37:31.701Z,1004.68
2023-04-20T00:38:29.820Z,1004.66
2023-04-20T00:39:28.574Z,1004.64
2023-04-20T00:40:30.686Z,1004.64
2023-04-20T00:41:29.811Z,1004.59
2023-04-20T00:42:29.103Z,1004.59
2023-04-20T00:43:29.273Z,1004.54
2023-04-20T00:44:29.574Z,1004.55
2023-04-20T00:45:32.746Z,1004.56
2023-04-20T00:46:29.919Z,1004.50
2023-04-20T00:47:32.625Z,1004.50
2023-04-20T00:48:30.317Z,1004.57
2023-04-20T00:49:30.473Z,1004.49
2023-04-20T00:50:32.589Z,1004.48
2023-04-20T00:51:30.750Z,1004.50
2023-04-20T00:52:32.870Z,1004.49
2023-04-20T00:53:30.996Z,1004.52
2023-04-20T00:54:31.266Z,1004.51
2023-04-20T00:55:31.496Z,1004.49
2023-04-20T00:56:31.769Z,1004.49
2023-04-20T00:57:31.971Z,1004.50
2023-04-20T00:58:34.387Z,1004.45
2023-04-20T00:59:34.506Z,1004.43
2023-04-20T01:00:34.208Z,1004.42
2023-04-20T01:01:34.871Z,1004.44
2023-04-20T01:02:34.819Z,1004.37
2023-04-20T01:03:34.320Z,1004.41
2023-04-20T01:04:33.322Z,1004.45
2023-04-20T01:06:33.611Z,1004.44
2023-04-20T01:07:36.847Z,1004.43
2023-04-20T01:08:33.997Z,1004.44
2023-04-20T01:09:34.167Z,1004.43
2023-04-20T01:10:34.325Z,1004.39
2023-04-20T01:11:34.452Z,1004.35
2023-04-20T01:12:34.564Z,1004.38
2023-04-20T01:13:34.734Z,1004.35
2023-04-20T01:14:34.866Z,1004.31
2023-04-20T01:15:37.070Z,1004.33
2023-04-20T01:16:35.265Z,1004.27
2023-04-20T01:17:37.016Z,1004.28
2023-04-20T01:18:36.648Z,1004.29
2023-04-20T01:19:35.832Z,1004.26
2023-04-20T01:20:37.988Z,1004.28
2023-04-20T01:21:38.113Z,1004.30
2023-04-20T01:22:36.251Z,1004.27
2023-04-20T01:23:36.456Z,1004.29
2023-04-20T01:24:37.778Z,1004.25
2023-04-20T01:25:37.941Z,1004.24
2023-04-20T01:26:38.723Z,1004.24
2023-04-20T01:27:38.332Z,1004.19
2023-04-20T01:28:37.449Z,1004.22
2023-04-20T01:29:38.571Z,1004.18
2023-04-20T01:30:39.732Z,1004.17
2023-04-20T01:31:37.877Z,1004.18
2023-04-20T01:32:39.051Z,1004.17
2023-04-20T01:33:38.207Z,1004.09
2023-04-20T01:34:40.858Z,1004.13
2023-04-20T01:35:45.811Z,1004.08
2023-04-20T01:36:41.456Z,1004.07
2023-04-20T01:37:40.580Z,1004.09
2023-04-20T01:38:41.203Z,1004.06
2023-04-20T01:39:39.471Z,1004.06
2023-04-20T01:40:39.719Z,1004.09
2023-04-20T01:41:41.816Z,1004.05
2023-04-20T01:42:40.214Z,1004.00
2023-04-20T01:43:41.458Z,1004.04
2023-04-20T01:44:42.563Z,1004.03
2023-04-20T01:45:42.324Z,1004.03
2023-04-20T01:46:42.500Z,1004.01
2023-04-20T01:47:42.288Z,1003.94
2023-04-20T01:48:43.549Z,1003.95
2023-04-20T01:49:41.712Z,1003.94
2023-04-20T01:50:42.986Z,1003.98
2023-04-20T01:51:44.072Z,1003.85
2023-04-20T01:52:42.252Z,1003.88
2023-04-20T01:53:43.570Z,1003.88
2023-04-20T01:54:44.671Z,1003.90
2023-04-20T01:55:45.444Z,1003.88
2023-04-20T01:56:44.061Z,1003.87
2023-04-20T01:57:43.241Z,1003.87
2023-04-20T01:58:44.389Z,1003.83
2023-04-20T01:59:43.573Z,1003.84
2023-04-20T02:00:44.811Z,1003.82
2023-04-20T02:01:46.134Z,1003.88
2023-04-20T02:02:46.401Z,1003.83
2023-04-20T02:03:46.846Z,1003.81
2023-04-20T02:04:44.645Z,1003.81
2023-04-20T02:05:46.917Z,1003.83
2023-04-20T02:06:44.949Z,1003.82
2023-04-20T02:07:46.044Z,1003.84
2023-04-20T02:08:45.162Z,1003.84
2023-04-20T02:09:45.453Z,1003.84
2023-04-20T02:10:45.602Z,1003.81
2023-04-20T02:11:45.826Z,1003.77
2023-04-20T02:12:46.935Z,1003.77
2023-04-20T02:13:47.557Z,1003.82
2023-04-20T02:14:48.896Z,1003.72
2023-04-20T02:15:46.592Z,1003.77
2023-04-20T02:16:47.841Z,1003.75
2023-04-20T02:17:49.005Z,1003.69
2023-04-20T02:18:47.182Z,1003.62
2023-04-20T02:19:47.313Z,1003.69
2023-04-20T02:20:47.455Z,1003.69
2023-04-20T02:21:47.924Z,1003.61
2023-04-20T02:22:48.650Z,1003.61
2023-04-20T02:23:48.339Z,1003.63
2023-04-20T02:24:48.521Z,1003.64
2023-04-20T02:25:50.819Z,1003.65
2023-04-20T02:26:49.004Z,1003.63
2023-04-20T02:27:50.117Z,1003.63
2023-04-20T02:28:49.273Z,1003.60
2023-04-20T02:29:50.362Z,1003.59
2023-04-20T02:30:51.019Z,1003.60
2023-04-20T02:31:52.620Z,1003.61
2023-04-20T02:32:49.802Z,1003.59
2023-04-20T02:33:50.893Z,1003.61
2023-04-20T02:34:50.033Z,1003.64
2023-04-20T02:35:53.145Z,1003.66
2023-04-20T02:36:50.344Z,1003.58
2023-04-20T02:37:51.502Z,1003.61
2023-04-20T02:38:50.655Z,1003.54
2023-04-20T02:39:52.731Z,1003.59
2023-04-20T02:40:51.892Z,1003.53
2023-04-20T02:41:51.059Z,1003.60
2023-04-20T02:42:52.179Z,1003.53
2023-04-20T02:43:53.180Z,1003.51
2023-04-20T02:44:52.910Z,1003.56
2023-04-20T02:45:53.614Z,1003.58
2023-04-20T02:46:54.291Z,1003.50
2023-04-20T02:47:53.471Z,1003.55
2023-04-20T02:48:55.375Z,1003.53
2023-04-20T02:49:52.996Z,1003.50
2023-04-20T02:50:54.117Z,1003.52
2023-04-20T02:51:55.294Z,1003.51
2023-04-20T02:52:54.733Z,1003.54
2023-04-20T02:53:54.873Z,1003.54
2023-04-20T02:54:55.994Z,1003.54
2023-04-20T02:55:56.289Z,1003.52
2023-04-20T02:56:57.804Z,1003.49
2023-04-20T02:57:56.773Z,1003.48
2023-04-20T02:58:54.923Z,1003.49
2023-04-20T02:59:57.038Z,1003.49
2023-04-20T03:00:55.234Z,1003.45
2023-04-20T03:01:57.566Z,1003.42
2023-04-20T03:02:57.851Z,1003.45
2023-04-20T03:03:56.263Z,1003.45
2023-04-20T03:04:58.983Z,1003.49
2023-04-20T03:05:59.777Z,1003.43
2023-04-20T03:06:56.984Z,1003.45
2023-04-20T03:07:58.204Z,1003.45
2023-04-20T03:08:59.297Z,1003.42
2023-04-20T03:09:57.464Z,1003.47
2023-04-20T03:10:57.595Z,1003.44
2023-04-20T03:11:57.769Z,1003.43
2023-04-20T03:12:58.898Z,1003.44
2023-04-20T03:13:59.073Z,1003.39
2023-04-20T03:14:58.228Z,1003.43
2023-04-20T03:15:58.483Z,1003.41
2023-04-20T03:16:58.809Z,1003.43
2023-04-20T03:18:01.025Z,1003.41
2023-04-20T03:18:59.207Z,1003.51
2023-04-20T03:19:59.926Z,1003.45
2023-04-20T03:20:59.608Z,1003.45
2023-04-20T03:22:00.749Z,1003.47
2023-04-20T03:22:59.900Z,1003.49
2023-04-20T03:24:00.041Z,1003.51
2023-04-20T03:25:00.177Z,1003.53
2023-04-20T03:26:01.473Z,1003.49
2023-04-20T03:27:00.651Z,1003.51
2023-04-20T03:28:02.259Z,1003.50
2023-04-20T03:29:02.849Z,1003.51
2023-04-20T03:30:02.268Z,1003.51
2023-04-20T03:31:02.910Z,1003.53
2023-04-20T03:32:03.661Z,1003.49
2023-04-20T03:33:01.838Z,1003.48
2023-04-20T03:34:03.533Z,1003.50
2023-04-20T03:35:02.159Z,1003.47
2023-04-20T03:36:06.956Z,1003.50
2023-04-20T03:37:02.684Z,1003.48
2023-04-20T03:38:04.308Z,1003.47
2023-04-20T03:39:02.970Z,1003.49
2023-04-20T03:40:03.167Z,1003.45
2023-04-20T03:41:03.372Z,1003.43
2023-04-20T03:42:03.578Z,1003.48
2023-04-20T03:43:04.660Z,1003.49
2023-04-20T03:44:04.676Z,1003.47
2023-04-20T03:45:05.814Z,1003.46
2023-04-20T03:46:04.986Z,1003.49
2023-04-20T03:47:04.260Z,1003.46
2023-04-20T03:48:04.450Z,1003.45
2023-04-20T03:49:04.627Z,1003.45
2023-04-20T03:50:04.806Z,1003.43
2023-04-20T03:51:07.535Z,1003.42
2023-04-20T03:52:05.221Z,1003.38
2023-04-20T03:53:06.313Z,1003.39
2023-04-20T03:54:05.471Z,1003.41
2023-04-20T03:55:06.595Z,1003.40
2023-04-20T03:56:05.728Z,1003.41
2023-04-20T03:57:05.908Z,1003.41
2023-04-20T03:58:06.104Z,1003.42
2023-04-20T03:59:06.300Z,1003.44
2023-04-20T04:00:06.454Z,1003.40
2023-04-20T04:01:06.630Z,1003.43
2023-04-20T04:02:06.904Z,1003.44
2023-04-20T04:03:09.287Z,1003.43
2023-04-20T04:04:07.474Z,1003.43
2023-04-20T04:05:08.671Z,1003.36
2023-04-20T04:06:09.886Z,1003.35
2023-04-20T04:07:09.222Z,1003.36
2023-04-20T04:08:08.368Z,1003.32
2023-04-20T04:09:08.504Z,1003.39
2023-04-20T04:10:08.685Z,1003.35
2023-04-20T04:11:08.821Z,1003.31
2023-04-20T04:12:08.969Z,1003.31
2023-04-20T04:13:09.142Z,1003.31
2023-04-20T04:14:11.322Z,1003.31
2023-04-20T04:15:11.461Z,1003.31
2023-04-20T04:16:10.596Z,1003.31
2023-04-20T04:17:09.854Z,1003.31
2023-04-20T04:18:11.005Z,1003.31
2023-04-20T04:19:10.892Z,1003.34
2023-04-20T04:20:10.531Z,1003.36
2023-04-20T04:21:12.742Z,1003.34
2023-04-20T04:22:12.032Z,1003.32
2023-04-20T04:23:11.147Z,1003.31
2023-04-20T04:24:12.345Z,1003.37
2023-04-20T04:25:12.064Z,1003.31
2023-04-20T04:26:13.722Z,1003.33
2023-04-20T04:27:12.857Z,1003.31
2023-04-20T04:28:11.989Z,1003.35
2023-04-20T04:29:12.191Z,1003.32
2023-04-20T04:30:12.336Z,1003.36
2023-04-20T04:31:12.606Z,1003.32
2023-04-20T04:32:12.849Z,1003.35
2023-04-20T04:33:12.998Z,1003.36
2023-04-20T04:34:13.168Z,1003.31
2023-04-20T04:35:15.422Z,1003.35
2023-04-20T04:36:14.978Z,1003.36
2023-04-20T04:37:15.623Z,1003.31
2023-04-20T04:38:13.754Z,1003.34
2023-04-20T04:39:15.742Z,1003.25
2023-04-20T04:40:14.144Z,1003.32
2023-04-20T04:41:14.295Z,1003.27
2023-04-20T04:42:14.462Z,1003.28
2023-04-20T04:43:15.213Z,1003.36
2023-04-20T04:44:15.177Z,1003.32
2023-04-20T04:45:15.539Z,1003.35
2023-04-20T04:46:18.771Z,1003.30
2023-04-20T04:47:17.017Z,1003.34
2023-04-20T04:48:18.133Z,1003.28
2023-04-20T04:49:16.650Z,1003.30
2023-04-20T04:50:17.747Z,1003.32
2023-04-20T04:51:17.087Z,1003.33
2023-04-20T04:52:17.778Z,1003.31
2023-04-20T04:53:19.389Z,1003.32
2023-04-20T04:54:20.008Z,1003.27
2023-04-20T04:55:17.792Z,1003.33
2023-04-20T04:56:18.050Z,1003.33
2023-04-20T04:57:19.175Z,1003.29
2023-04-20T04:58:18.320Z,1003.21
2023-04-20T04:59:18.710Z,1003.30
2023-04-20T05:00:20.983Z,1003.24
2023-04-20T05:01:19.632Z,1003.31
2023-04-20T05:02:18.883Z,1003.27
2023-04-20T05:03:22.085Z,1003.27
2023-04-20T05:04:20.420Z,1003.26
2023-04-20T05:05:22.420Z,1003.30
2023-04-20T05:06:22.873Z,1003.24
2023-04-20T05:07:20.695Z,1003.24
2023-04-20T05:08:23.721Z,1003.25
2023-04-20T05:09:22.833Z,1003.26
2023-04-20T05:10:21.155Z,1003.18
2023-04-20T05:11:21.516Z,1003.19
2023-04-20T05:12:22.737Z,1003.20
2023-04-20T05:13:22.516Z,1003.25
2023-04-20T05:14:22.268Z,1003.28
2023-04-20T05:15:24.891Z,1003.30
2023-04-20T05:16:22.591Z,1003.33
2023-04-20T05:17:27.350Z,1003.32
2023-04-20T05:18:25.045Z,1003.32
2023-04-20T05:19:25.850Z,1003.35
2023-04-20T05:20:26.089Z,1003.36
2023-04-20T05:21:24.898Z,1003.37
2023-04-20T05:22:24.355Z,1003.36
2023-04-20T05:23:25.452Z,1003.30
2023-04-20T05:24:27.528Z,1003.30
2023-04-20T05:25:26.859Z,1003.30
2023-04-20T05:26:25.094Z,1003.32
2023-04-20T05:27:25.403Z,1003.36
2023-04-20T05:28:25.756Z,1003.28
2023-04-20T05:29:26.178Z,1003.34
2023-04-20T05:30:28.276Z,1003.33
2023-04-20T05:31:26.883Z,1003.35
2023-04-20T05:32:26.734Z,1003.33
2023-04-20T05:33:28.028Z,1003.35
2023-04-20T05:34:27.491Z,1003.40
2023-04-20T05:35:29.713Z,1003.39
2023-04-20T05:36:29.836Z,1003.44
2023-04-20T05:37:30.673Z,1003.42
2023-04-20T05:38:30.509Z,1003.41
2023-04-20T05:39:30.516Z,1003.41
2023-04-20T05:40:30.886Z,1003.42
2023-04-20T05:41:29.766Z,1003.38
2023-04-20T05:42:30.121Z,1003.43
2023-04-20T05:43:29.770Z,1003.39
2023-04-20T05:44:30.853Z,1003.35
2023-04-20T05:45:29.999Z,1003.36
2023-04-20T05:46:30.399Z,1003.39
2023-04-20T05:47:30.737Z,1003.41
2023-04-20T05:48:31.871Z,1003.44
2023-04-20T05:49:31.322Z,1003.46
2023-04-20T05:50:33.650Z,1003.48
2023-04-20T05:51:33.146Z,1003.44
2023-04-20T05:52:33.300Z,1003.51
2023-04-20T05:53:33.516Z,1003.48
2023-04-20T05:54:34.669Z,1003.50
2023-04-20T05:55:34.397Z,1003.50
2023-04-20T05:56:34.255Z,1003.49
2023-04-20T05:57:35.133Z,1003.52
2023-04-20T05:58:36.801Z,1003.55
2023-04-20T05:59:34.152Z,1003.53
2023-04-20T06:00:34.336Z,1003.54
2023-04-20T06:01:35.774Z,1003.55
2023-04-20T06:02:35.718Z,1003.55
2023-04-20T06:03:37.645Z,1003.52
2023-04-20T06:04:36.015Z,1003.53
2023-04-20T06:05:41.158Z,1003.55
2023-04-20T06:06:39.434Z,1003.56
2023-04-20T06:07:40.978Z,1003.50
2023-04-20T06:08:36.408Z,1003.53
2023-04-20T06:09:40.893Z,1003.52
2023-04-20T06:10:45.778Z,1003.59
2023-04-20T06:11:39.234Z,1003.54
2023-04-20T06:12:39.651Z,1003.53
2023-04-20T06:13:37.836Z,1003.56
2023-04-20T06:14:39.106Z,1003.57
2023-04-20T06:15:58.417Z,1003.62
2023-04-20T06:16:41.062Z,1003.57
2023-04-20T06:17:44.437Z,1003.59
2023-04-20T06:19:39.437Z,1003.71
2023-04-20T06:20:42.189Z,1003.67
2023-04-20T06:21:55.185Z,1003.71
2023-04-20T06:22:40.159Z,1003.70
2023-04-20T06:25:00.024Z,1003.74
2023-04-20T06:26:18.420Z,1003.76
2023-04-20T06:26:45.564Z,1003.71
2023-04-20T06:27:44.196Z,1003.68
2023-04-20T06:28:42.646Z,1003.72
2023-04-20T06:29:43.810Z,1003.76
2023-04-20T06:30:45.627Z,1003.75
2023-04-20T06:31:44.704Z,1003.71
2023-04-20T06:32:44.791Z,1003.72
2023-04-20T06:33:43.680Z,1003.72
2023-04-20T06:34:43.896Z,1003.75
2023-04-20T06:35:45.175Z,1003.71
2023-04-20T06:36:46.760Z,1003.73
2023-04-20T06:37:43.978Z,1003.76
2023-04-20T06:38:46.788Z,1003.77
2023-04-20T06:39:46.337Z,1003.75
2023-04-20T06:40:44.676Z,1003.77
2023-04-20T06:41:46.591Z,1003.80
2023-04-20T06:42:48.004Z,1003.81
2023-04-20T06:43:46.666Z,1003.81
2023-04-20T06:44:48.865Z,1003.80
2023-04-20T06:45:47.083Z,1003.83
2023-04-20T06:46:50.660Z,1003.86
2023-04-20T06:47:47.644Z,1003.84
2023-04-20T06:48:47.418Z,1003.78
2023-04-20T06:49:48.657Z,1003.81
2023-04-20T06:50:47.691Z,1003.83
2023-04-20T06:51:46.965Z,1003.84
2023-04-20T06:52:48.300Z,1003.84
2023-04-20T06:54:08.323Z,1003.84
2023-04-20T06:54:52.183Z,1003.83
2023-04-20T06:55:52.147Z,1003.83
2023-04-20T06:56:48.487Z,1003.87
2023-04-20T06:58:00.320Z,1003.82
2023-04-20T06:58:50.296Z,1003.85
2023-04-20T06:59:50.311Z,1003.83
2023-04-20T07:00:52.696Z,1003.83
2023-04-20T07:01:51.710Z,1003.88
2023-04-20T07:02:54.233Z,1003.87
2023-04-20T07:05:03.659Z,1003.85
2023-04-20T07:06:55.390Z,1003.86
2023-04-20T07:07:51.670Z,1003.92
2023-04-20T07:08:55.848Z,1003.89
2023-04-20T07:09:53.029Z,1003.89
2023-04-20T07:10:54.046Z,1003.95
2023-04-20T07:11:55.837Z,1003.90
2023-04-20T07:13:01.889Z,1003.94
2023-04-20T07:13:55.022Z,1003.95
2023-04-20T07:14:54.416Z,1003.92
2023-04-20T07:15:55.092Z,1003.95
2023-04-20T07:16:54.661Z,1003.92
2023-04-20T07:17:55.084Z,1003.87
2023-04-20T07:18:54.561Z,1003.89
2023-04-20T07:19:54.800Z,1003.91
2023-04-20T07:20:55.136Z,1003.90
2023-04-20T07:21:56.337Z,1003.87
2023-04-20T07:22:55.725Z,1003.89
2023-04-20T07:23:55.347Z,1003.85
2023-04-20T07:24:58.122Z,1003.86
2023-04-20T07:25:58.348Z,1003.90
2023-04-20T07:26:59.473Z,1003.89
2023-04-20T07:27:57.180Z,1003.85
2023-04-20T07:28:57.561Z,1003.85
2023-04-20T07:29:58.579Z,1003.86
2023-04-20T07:30:59.485Z,1003.82
2023-04-20T07:31:59.798Z,1003.83
2023-04-20T07:32:59.250Z,1003.88
2023-04-20T07:33:59.344Z,1003.88
2023-04-20T07:34:59.213Z,1003.87
2023-04-20T07:36:09.355Z,1003.87
2023-04-20T07:37:00.418Z,1003.87
2023-04-20T07:38:00.944Z,1003.89
2023-04-20T07:39:04.008Z,1003.95
2023-04-20T07:39:59.756Z,1003.87
2023-04-20T07:41:00.044Z,1003.87
2023-04-20T07:42:00.555Z,1003.91
2023-04-20T07:43:01.595Z,1003.90
2023-04-20T07:44:00.967Z,1004.02
2023-04-20T07:45:00.912Z,1003.93
2023-04-20T07:46:02.277Z,1003.95
2023-04-20T07:47:02.522Z,1003.96
2023-04-20T07:48:02.425Z,1004.01
2023-04-20T07:49:02.024Z,1003.96
2023-04-20T07:50:01.478Z,1003.92
2023-04-20T07:51:02.265Z,1003.96
2023-04-20T07:52:15.108Z,1003.98
2023-04-20T07:53:02.195Z,1003.96
2023-04-20T07:54:03.178Z,1003.95
2023-04-20T07:55:02.590Z,1004.02
2023-04-20T07:56:03.304Z,1004.02
2023-04-20T07:57:03.400Z,1004.07
2023-04-20T07:58:05.131Z,1004.06
2023-04-20T07:59:05.254Z,1003.98
2023-04-20T08:00:09.296Z,1004.00
2023-04-20T08:01:03.191Z,1004.05
2023-04-20T08:02:06.793Z,1004.03
2023-04-20T08:03:04.651Z,1004.06
2023-04-20T08:04:06.183Z,1004.04
2023-04-20T08:05:06.476Z,1004.07
2023-04-20T08:06:07.185Z,1004.10
2023-04-20T08:07:05.495Z,1004.12
2023-04-20T08:08:04.850Z,1004.09
2023-04-20T08:09:06.572Z,1004.15
2023-04-20T08:10:07.105Z,1004.06
2023-04-20T08:11:06.430Z,1004.04
2023-04-20T08:12:08.404Z,1004.10
2023-04-20T08:13:06.663Z,1004.13
2023-04-20T08:14:07.106Z,1004.07
2023-04-20T08:15:12.720Z,1004.12
2023-04-20T08:16:07.698Z,1004.10
2023-04-20T08:17:14.707Z,1004.16
2023-04-20T08:18:09.376Z,1004.15
2023-04-20T08:19:08.892Z,1004.17
2023-04-20T08:20:08.820Z,1004.15
2023-04-20T08:21:16.117Z,1004.13
2023-04-20T08:24:05.696Z,1004.16
2023-04-20T08:24:27.075Z,1004.12
2023-04-20T08:25:27.204Z,1004.14
2023-04-20T08:26:24.580Z,1004.17
2023-04-20T08:27:25.185Z,1004.19
2023-04-20T08:29:26.838Z,1004.21
2023-04-20T08:30:28.479Z,1004.19
2023-04-20T08:31:27.511Z,1004.14
2023-04-20T08:32:27.553Z,1004.14
2023-04-20T08:33:27.720Z,1004.23
2023-04-20T08:34:28.379Z,1004.15
2023-04-20T08:35:26.844Z,1004.23
2023-04-20T08:36:27.141Z,1004.18
2023-04-20T08:37:26.542Z,1004.15
2023-04-20T08:38:33.817Z,1004.26
2023-04-20T08:39:27.194Z,1004.15
2023-04-20T08:40:32.513Z,1004.14
2023-04-20T08:41:27.868Z,1004.14
2023-04-20T08:42:37.064Z,1004.08
2023-04-20T08:43:30.213Z,1004.12
2023-04-20T08:44:30.764Z,1004.11
2023-04-20T08:45:29.663Z,1004.09
2023-04-20T08:46:31.368Z,1004.06
2023-04-20T08:47:36.064Z,1004.08
2023-04-20T08:48:30.209Z,1004.12
2023-04-20T08:49:31.604Z,1004.06
2023-04-20T08:50:31.253Z,1004.12
2023-04-20T08:51:30.221Z,1004.05
2023-04-20T08:52:36.498Z,1004.14
2023-04-20T08:53:32.908Z,1004.08
2023-04-20T08:54:33.849Z,1004.16
2023-04-20T08:55:31.551Z,1004.12
2023-04-20T08:56:37.426Z,1004.14
2023-04-20T08:57:34.110Z,1004.16
2023-04-20T08:58:33.530Z,1004.11
2023-04-20T08:59:33.906Z,1004.14
2023-04-20T09:00:36.371Z,1004.11
2023-04-20T09:01:35.937Z,1004.13
2023-04-20T09:02:44.255Z,1004.09
2023-04-20T09:03:40.436Z,1004.10
2023-04-20T09:04:35.714Z,1004.15
2023-04-20T09:06:34.693Z,1004.15
2023-04-20T09:07:35.221Z,1004.09
2023-04-20T09:08:36.271Z,1004.10
2023-04-20T09:09:36.112Z,1004.09
2023-04-20T09:10:37.063Z,1004.06
2023-04-20T09:11:36.122Z,1004.09
2023-04-20T09:12:35.946Z,1004.11
2023-04-20T09:13:39.950Z,1004.10
2023-04-20T09:14:48.164Z,1004.14
2023-04-20T09:15:36.484Z,1004.16
2023-04-20T09:16:36.397Z,1004.09
2023-04-20T09:17:37.830Z,1004.11
2023-04-20T09:18:37.716Z,1004.11
2023-04-20T09:19:37.917Z,1004.15
2023-04-20T09:20:40.027Z,1004.12
2023-04-20T09:22:01.333Z,1004.07
2023-04-20T09:22:38.528Z,1257.58
2023-04-20T09:23:38.428Z,1257.58
2023-04-20T09:24:39.570Z,1257.58
2023-04-20T09:25:48.210Z,1257.58
2023-04-20T09:28:20.188Z,1257.58
2023-04-20T09:29:22.594Z,1257.58
2023-04-20T09:30:20.576Z,1257.58
2023-04-20T09:31:21.000Z,1257.58
2023-04-20T09:32:23.106Z,1257.58
2023-04-20T09:33:21.329Z,1257.58
2023-04-20T09:34:22.011Z,1257.58
2023-04-20T09:35:22.582Z,1257.58
2023-04-20T09:36:22.155Z,1257.58
2023-04-20T09:37:23.238Z,1257.58
2023-04-20T09:38:23.729Z,1257.58
2023-04-20T09:39:23.145Z,1257.58
2023-04-20T09:40:22.301Z,1257.58
2023-04-20T09:41:23.634Z,1257.58
2023-04-20T09:42:23.024Z,1257.58
2023-04-20T09:43:24.595Z,1257.58
2023-04-20T09:44:25.612Z,1257.58
2023-04-20T09:45:27.957Z,1257.58
2023-04-20T09:46:25.603Z,1257.58
2023-04-20T09:47:23.901Z,1257.58
2023-04-20T09:48:26.161Z,1257.58
2023-04-20T09:49:25.915Z,1257.58
2023-04-20T09:50:31.859Z,1257.58
2023-04-20T09:51:25.477Z,1257.58
2023-04-20T09:52:25.349Z,1257.58
2023-04-20T09:53:35.208Z,1257.58
2023-04-20T09:54:25.014Z,1257.58
2023-04-20T09:55:26.586Z,1257.58
2023-04-20T09:56:26.461Z,1257.58
2023-04-20T09:57:26.538Z,1257.58
2023-04-20T09:58:25.749Z,1257.58
2023-04-20T09:59:26.252Z,1257.58
2023-04-20T10:00:27.506Z,1257.58
2023-04-20T10:01:28.435Z,1257.58
2023-04-20T10:02:27.122Z,1257.58
2023-04-20T10:03:30.286Z,1257.58
2023-04-20T10:04:28.601Z,1257.58
2023-04-20T10:05:29.103Z,1257.58
2023-04-20T10:06:36.188Z,1257.58
2023-04-20T10:07:30.831Z,1257.58
2023-04-20T10:09:00.884Z,1257.58
2023-04-20T10:09:29.771Z,1257.58
2023-04-20T10:10:29.576Z,1257.58
2023-04-20T10:11:40.443Z,1257.58
2023-04-20T10:12:30.528Z,1257.58
2023-04-20T10:13:30.174Z,1257.58
2023-04-20T10:14:31.417Z,1257.58
2023-04-20T10:15:30.468Z,1257.58
2023-04-20T10:16:32.357Z,1257.58
2023-04-20T10:17:31.091Z,1257.58
2023-04-20T10:18:30.511Z,1257.58
2023-04-20T10:19:32.155Z,1257.58
2023-04-20T10:20:31.358Z,1257.58
2023-04-20T10:21:32.321Z,1257.58
2023-04-20T10:22:31.426Z,1257.58
2023-04-20T10:23:31.845Z,1257.58
2023-04-20T10:24:33.430Z,1257.58
2023-04-20T10:25:32.906Z,1257.58
2023-04-20T10:26:39.708Z,1257.58
2023-04-20T10:27:34.616Z,1257.58
2023-04-20T10:28:32.913Z,1257.58
2023-04-20T10:29:36.475Z,1257.58
2023-04-20T10:30:36.646Z,1257.58
2023-04-20T10:31:37.517Z,1257.58
2023-04-20T10:32:36.126Z,1257.58
2023-04-20T10:33:42.177Z,1257.58
2023-04-20T10:34:33.930Z,1257.58
2023-04-20T10:35:39.124Z,1257.58
2023-04-20T10:37:11.716Z,1257.58
2023-04-20T10:37:34.844Z,1257.58
2023-04-20T10:39:34.838Z,1257.58
2023-04-20T10:40:41.910Z,1257.58
2023-04-20T10:41:39.016Z,1257.58
2023-04-20T10:42:36.720Z,1257.58
2023-04-20T10:43:36.868Z,1257.58
2023-04-20T10:44:37.387Z,1257.58
2023-04-20T10:45:37.965Z,1257.58
2023-04-20T10:46:36.617Z,1257.58
2023-04-20T10:47:41.654Z,1257.58
2023-04-20T10:48:37.879Z,1257.58
2023-04-20T10:49:38.757Z,1257.58
2023-04-20T10:50:38.828Z,1257.58
2023-04-20T10:51:43.916Z,1257.58
2023-04-20T10:52:39.205Z,1257.58
2023-04-20T10:53:43.073Z,1257.58
2023-04-20T10:54:48.521Z,1257.58
2023-04-20T10:55:39.249Z,1257.58
2023-04-20T10:56:56.209Z,1257.58
2023-04-20T10:57:39.436Z,1257.58
2023-04-20T10:58:42.821Z,1257.58
2023-04-20T10:59:41.075Z,1257.58
2023-04-20T11:00:40.095Z,1257.58
2023-04-20T11:01:40.132Z,1257.58
2023-04-20T11:02:41.097Z,1257.58
2023-04-20T11:03:40.496Z,1257.58
2023-04-20T11:04:41.326Z,1257.58
2023-04-20T11:05:46.414Z,1257.58
2023-04-20T11:06:43.921Z,1257.58
2023-04-20T11:07:41.563Z,1257.58
2023-04-20T11:08:44.082Z,1257.58
2023-04-20T11:09:41.268Z,1257.58
2023-04-20T11:10:41.850Z,1257.58
2023-04-20T11:11:41.451Z,1257.58
2023-04-20T11:12:42.314Z,1257.58
2023-04-20T11:13:50.414Z,1257.58
2023-04-20T11:14:44.466Z,1257.58
2023-04-20T11:15:42.012Z,1257.58
2023-04-20T11:16:50.784Z,1257.58
2023-04-20T11:17:43.424Z,1257.58
2023-04-20T11:18:42.518Z,1257.58
2023-04-20T11:19:44.027Z,1257.58
2023-04-20T11:20:44.176Z,1257.58
2023-04-20T11:21:42.939Z,1257.58
2023-04-20T11:22:47.511Z,1257.58
2023-04-20T11:23:44.090Z,1257.58
2023-04-20T11:24:47.029Z,1257.58
2023-04-20T11:25:44.744Z,1257.58
2023-04-20T11:26:43.728Z,1257.58
2023-04-20T11:27:43.895Z,1257.58
2023-04-20T11:28:44.174Z,1257.58
2023-04-20T11:29:44.539Z,1257.58
2023-04-20T11:30:43.876Z,1257.58
2023-04-20T11:31:44.455Z,1257.58
2023-04-20T11:32:44.508Z,1257.58
2023-04-20T11:33:44.922Z,1257.58
2023-04-20T11:34:48.023Z,1257.58
2023-04-20T11:35:48.756Z,1257.58
2023-04-20T11:36:48.001Z,1257.58
2023-04-20T11:37:44.664Z,1257.58
2023-04-20T11:38:46.065Z,1257.58
2023-04-20T11:39:46.819Z,1257.58
2023-04-20T11:40:46.027Z,1257.58
2023-04-20T11:41:46.555Z,1257.58
2023-04-20T11:42:49.197Z,1257.58
2023-04-20T11:43:46.894Z,1257.58
2023-04-20T11:44:46.056Z,1257.58
2023-04-20T11:45:46.930Z,1257.58
2023-04-20T11:46:50.487Z,1257.58
2023-04-20T11:47:46.241Z,1257.58
2023-04-20T11:48:47.675Z,1257.58
2023-04-20T11:49:46.976Z,1257.58
2023-04-20T11:50:47.475Z,1257.58
2023-04-20T11:51:47.976Z,1257.58
2023-04-20T11:52:48.138Z,1257.58
2023-04-20T11:53:47.688Z,1257.58
2023-04-20T11:54:47.568Z,1257.58
2023-04-20T11:55:49.293Z,1257.58
2023-04-20T11:56:51.899Z,1257.58
2023-04-20T11:57:47.712Z,1257.58
2023-04-20T11:58:47.969Z,1257.58
2023-04-20T11:59:49.317Z,1257.58
2023-04-20T12:00:49.658Z,1257.58
2023-04-20T12:01:57.117Z,1257.58
2023-04-20T12:02:52.135Z,1257.58
2023-04-20T12:03:50.550Z,1257.58
2023-04-20T12:04:49.435Z,1257.58
2023-04-20T12:05:51.671Z,1257.58
2023-04-20T12:06:49.537Z,1257.58
2023-04-20T12:07:49.973Z,1257.58
2023-04-20T12:08:50.586Z,1257.58
2023-04-20T12:09:51.299Z,1257.58
2023-04-20T12:10:51.582Z,1257.58
2023-04-20T12:11:52.062Z,1257.58
2023-04-20T12:12:50.801Z,1257.58
2023-04-20T12:13:51.881Z,1257.58
2023-04-20T12:14:52.371Z,1257.58
2023-04-20T12:15:52.319Z,1257.58
2023-04-20T12:16:52.552Z,1257.58
2023-04-20T12:17:51.997Z,1257.58
2023-04-20T12:18:53.459Z,1257.58
2023-04-20T12:19:54.241Z,1257.58